sensor_id;sensor_type;location;lat;lon;timestamp;P1;durP1;ratioP1;P2;durP2;ratioP2
29466;SDS011;60968;37.490;-122.288;2023-03-11T00:02:34;9.93;;;2.43;;
29466;SDS011;60968;37.490;-122.288;2023-03-11T00:05:36;10.60;;;2.03;;
29466;SDS011;60968;37.490;-122.288;2023-03-11T00:08:39;15.63;;;2.20;;
29466;SDS011;60968;37.490;-122.288;2023-03-11T00:11:40;13.07;;;2.40;;
29466;SDS011;60968;37.490;-122.288;2023-03-11T00:14:41;9.07;;;1.73;;
29466;SDS011;60968;37.490;-122.288;2023-03-11T00:17:42;9.43;;;1.80;;
29466;SDS011;60968;37.490;-122.288;2023-03-11T00:20:44;14.93;;;2.13;;
29466;SDS011;60968;37.490;-122.288;2023-03-11T00:23:46;13.83;;;2.00;;
29466;SDS011;60968;37.490;-122.288;2023-03-11T00:26:47;5.97;;;1.37;;
29466;SDS011;60968;37.490;-122.288;2023-03-11T00:29:47;8.40;;;1.83;;
29466;SDS011;60968;37.490;-122.288;2023-03-11T00:32:49;6.73;;;1.90;;
29466;SDS011;60968;37.490;-122.288;2023-03-11T00:35:51;8.80;;;1.60;;
29466;SDS011;60968;37.490;-122.288;2023-03-11T00:38:52;9.97;;;1.47;;
29466;SDS011;60968;37.490;-122.288;2023-03-11T00:41:52;11.10;;;1.60;;
29466;SDS011;60968;37.490;-122.288;2023-03-11T00:44:53;10.17;;;1.40;;
29466;SDS011;60968;37.490;-122.288;2023-03-11T00:47:54;6.43;;;1.27;;
29466;SDS011;60968;37.490;-122.288;2023-03-11T00:50:56;6.40;;;1.20;;
29466;SDS011;60968;37.490;-122.288;2023-03-11T00:53:57;7.97;;;1.43;;
29466;SDS011;60968;37.490;-122.288;2023-03-11T00:56:58;8.23;;;1.80;;
29466;SDS011;60968;37.490;-122.288;2023-03-11T00:59:59;30.67;;;11.47;;
29466;SDS011;60968;37.490;-122.288;2023-03-11T01:03:00;11.87;;;2.20;;
29466;SDS011;60968;37.490;-122.288;2023-03-11T01:06:01;12.00;;;3.30;;
29466;SDS011;60968;37.490;-122.288;2023-03-11T01:09:02;8.43;;;2.00;;
29466;SDS011;60968;37.490;-122.288;2023-03-11T01:12:03;12.23;;;1.73;;
29466;SDS011;60968;37.490;-122.288;2023-03-11T01:15:04;21.87;;;2.80;;
29466;SDS011;60968;37.490;-122.288;2023-03-11T01:18:06;5.53;;;1.20;;
29466;SDS011;60968;37.490;-122.288;2023-03-11T01:21:07;14.00;;;1.47;;
29466;SDS011;60968;37.490;-122.288;2023-03-11T01:24:08;4.30;;;1.30;;
29466;SDS011;60968;37.490;-122.288;2023-03-11T01:27:09;7.77;;;1.90;;
29466;SDS011;60968;37.490;-122.288;2023-03-11T01:30:12;10.80;;;1.30;;
29466;SDS011;60968;37.490;-122.288;2023-03-11T01:33:16;6.17;;;1.10;;
29466;SDS011;60968;37.490;-122.288;2023-03-11T01:36:18;8.60;;;1.93;;
29466;SDS011;60968;37.490;-122.288;2023-03-11T01:39:19;5.30;;;1.60;;
29466;SDS011;60968;37.490;-122.288;2023-03-11T01:42:20;18.53;;;2.67;;
29466;SDS011;60968;37.490;-122.288;2023-03-11T01:48:37;11.50;;;2.00;;
29466;SDS011;60968;37.490;-122.288;2023-03-11T01:51:39;12.77;;;1.67;;
29466;SDS011;60968;37.490;-122.288;2023-03-11T01:54:42;10.30;;;2.60;;
29466;SDS011;60968;37.490;-122.288;2023-03-11T01:57:43;9.73;;;1.90;;
29466;SDS011;60968;37.490;-122.288;2023-03-11T02:00:45;11.60;;;2.07;;
29466;SDS011;60968;37.490;-122.288;2023-03-11T02:03:47;18.87;;;2.47;;
29466;SDS011;60968;37.490;-122.288;2023-03-11T02:06:48;29.30;;;2.40;;
29466;SDS011;60968;37.490;-122.288;2023-03-11T02:09:49;8.83;;;1.90;;
29466;SDS011;60968;37.490;-122.288;2023-03-11T02:12:50;13.90;;;2.17;;
29466;SDS011;60968;37.490;-122.288;2023-03-11T02:15:52;20.87;;;2.43;;
29466;SDS011;60968;37.490;-122.288;2023-03-11T02:18:53;13.23;;;2.30;;
29466;SDS011;60968;37.490;-122.288;2023-03-11T02:21:54;12.20;;;2.70;;
29466;SDS011;60968;37.490;-122.288;2023-03-11T02:24:58;14.90;;;1.87;;
29466;SDS011;60968;37.490;-122.288;2023-03-11T02:28:04;11.33;;;2.17;;
29466;SDS011;60968;37.490;-122.288;2023-03-11T02:31:10;13.10;;;1.90;;
29466;SDS011;60968;37.490;-122.288;2023-03-11T02:34:17;13.30;;;1.87;;
29466;SDS011;60968;37.490;-122.288;2023-03-11T02:37:23;17.07;;;2.80;;
29466;SDS011;60968;37.490;-122.288;2023-03-11T02:43:46;15.83;;;2.20;;
29466;SDS011;60968;37.490;-122.288;2023-03-11T02:46:46;15.17;;;2.17;;
29466;SDS011;60968;37.490;-122.288;2023-03-11T02:49:47;14.83;;;2.57;;
29466;SDS011;60968;37.490;-122.288;2023-03-11T02:52:48;13.83;;;2.70;;
29466;SDS011;60968;37.490;-122.288;2023-03-11T02:55:50;10.87;;;2.47;;
29466;SDS011;60968;37.490;-122.288;2023-03-11T02:58:51;18.00;;;2.80;;
29466;SDS011;60968;37.490;-122.288;2023-03-11T03:01:53;7.33;;;1.83;;
29466;SDS011;60968;37.490;-122.288;2023-03-11T03:04:54;12.23;;;2.23;;
29466;SDS011;60968;37.490;-122.288;2023-03-11T03:07:55;12.00;;;2.03;;
29466;SDS011;60968;37.490;-122.288;2023-03-11T03:10:56;9.07;;;2.33;;
29466;SDS011;60968;37.490;-122.288;2023-03-11T03:13:57;16.73;;;3.07;;
29466;SDS011;60968;37.490;-122.288;2023-03-11T03:16:58;15.00;;;3.03;;
29466;SDS011;60968;37.490;-122.288;2023-03-11T03:19:59;20.10;;;2.23;;
29466;SDS011;60968;37.490;-122.288;2023-03-11T03:23:00;18.10;;;2.93;;
29466;SDS011;60968;37.490;-122.288;2023-03-11T03:26:03;11.63;;;2.33;;
29466;SDS011;60968;37.490;-122.288;2023-03-11T03:29:06;13.57;;;1.87;;
29466;SDS011;60968;37.490;-122.288;2023-03-11T03:32:08;13.57;;;2.27;;
29466;SDS011;60968;37.490;-122.288;2023-03-11T03:35:09;16.63;;;2.60;;
29466;SDS011;60968;37.490;-122.288;2023-03-11T03:38:10;15.90;;;2.50;;
29466;SDS011;60968;37.490;-122.288;2023-03-11T03:41:14;12.00;;;2.43;;
29466;SDS011;60968;37.490;-122.288;2023-03-11T03:44:16;15.27;;;2.83;;
29466;SDS011;60968;37.490;-122.288;2023-03-11T03:47:17;11.60;;;2.57;;
29466;SDS011;60968;37.490;-122.288;2023-03-11T03:50:19;14.60;;;2.20;;
29466;SDS011;60968;37.490;-122.288;2023-03-11T03:53:20;15.73;;;2.70;;
29466;SDS011;60968;37.490;-122.288;2023-03-11T03:56:21;23.40;;;3.10;;
29466;SDS011;60968;37.490;-122.288;2023-03-11T03:59:22;21.40;;;3.00;;
29466;SDS011;60968;37.490;-122.288;2023-03-11T04:02:23;16.97;;;2.43;;
29466;SDS011;60968;37.490;-122.288;2023-03-11T04:05:25;16.13;;;2.77;;
29466;SDS011;60968;37.490;-122.288;2023-03-11T04:08:26;17.07;;;3.00;;
29466;SDS011;60968;37.490;-122.288;2023-03-11T04:11:27;12.60;;;2.60;;
29466;SDS011;60968;37.490;-122.288;2023-03-11T04:14:28;12.00;;;2.47;;
29466;SDS011;60968;37.490;-122.288;2023-03-11T04:17:29;12.60;;;2.87;;
29466;SDS011;60968;37.490;-122.288;2023-03-11T04:20:30;14.23;;;2.80;;
29466;SDS011;60968;37.490;-122.288;2023-03-11T04:23:31;13.20;;;2.80;;
29466;SDS011;60968;37.490;-122.288;2023-03-11T04:26:32;13.47;;;3.10;;
29466;SDS011;60968;37.490;-122.288;2023-03-11T04:29:33;15.63;;;2.70;;
29466;SDS011;60968;37.490;-122.288;2023-03-11T04:32:34;16.83;;;2.73;;
29466;SDS011;60968;37.490;-122.288;2023-03-11T04:35:36;13.57;;;2.63;;
29466;SDS011;60968;37.490;-122.288;2023-03-11T04:38:38;17.27;;;3.63;;
29466;SDS011;60968;37.490;-122.288;2023-03-11T04:41:39;10.13;;;2.53;;
29466;SDS011;60968;37.490;-122.288;2023-03-11T04:44:39;13.63;;;3.00;;
29466;SDS011;60968;37.490;-122.288;2023-03-11T04:47:40;17.17;;;2.87;;
29466;SDS011;60968;37.490;-122.288;2023-03-11T04:50:41;14.00;;;2.80;;
29466;SDS011;60968;37.490;-122.288;2023-03-11T04:53:42;12.20;;;2.70;;
29466;SDS011;60968;37.490;-122.288;2023-03-11T04:56:43;16.07;;;2.90;;
29466;SDS011;60968;37.490;-122.288;2023-03-11T04:59:44;18.37;;;2.80;;
29466;SDS011;60968;37.490;-122.288;2023-03-11T05:02:45;16.77;;;2.80;;
29466;SDS011;60968;37.490;-122.288;2023-03-11T05:05:47;19.03;;;2.83;;
29466;SDS011;60968;37.490;-122.288;2023-03-11T05:08:47;15.77;;;2.90;;
29466;SDS011;60968;37.490;-122.288;2023-03-11T05:11:50;16.30;;;2.97;;
29466;SDS011;60968;37.490;-122.288;2023-03-11T05:14:50;17.20;;;3.40;;
29466;SDS011;60968;37.490;-122.288;2023-03-11T05:17:51;19.77;;;3.10;;
29466;SDS011;60968;37.490;-122.288;2023-03-11T05:20:52;19.93;;;7.00;;
29466;SDS011;60968;37.490;-122.288;2023-03-11T05:23:53;29.53;;;11.90;;
29466;SDS011;60968;37.490;-122.288;2023-03-11T05:26:54;23.13;;;9.03;;
29466;SDS011;60968;37.490;-122.288;2023-03-11T05:29:55;23.20;;;8.17;;
29466;SDS011;60968;37.490;-122.288;2023-03-11T05:32:56;24.00;;;6.73;;
29466;SDS011;60968;37.490;-122.288;2023-03-11T05:36:02;18.43;;;6.37;;
29466;SDS011;60968;37.490;-122.288;2023-03-11T05:39:07;16.73;;;6.17;;
29466;SDS011;60968;37.490;-122.288;2023-03-11T05:42:08;19.40;;;6.10;;
29466;SDS011;60968;37.490;-122.288;2023-03-11T05:45:09;19.63;;;5.00;;
29466;SDS011;60968;37.490;-122.288;2023-03-11T05:48:10;23.97;;;6.60;;
29466;SDS011;60968;37.490;-122.288;2023-03-11T05:51:12;21.47;;;6.97;;
29466;SDS011;60968;37.490;-122.288;2023-03-11T05:54:13;20.07;;;6.80;;
29466;SDS011;60968;37.490;-122.288;2023-03-11T05:57:16;23.43;;;7.20;;
29466;SDS011;60968;37.490;-122.288;2023-03-11T06:00:17;26.80;;;7.70;;
29466;SDS011;60968;37.490;-122.288;2023-03-11T06:03:19;21.10;;;7.57;;
29466;SDS011;60968;37.490;-122.288;2023-03-11T06:06:20;35.10;;;9.13;;
29466;SDS011;60968;37.490;-122.288;2023-03-11T06:09:21;33.40;;;10.87;;
29466;SDS011;60968;37.490;-122.288;2023-03-11T06:12:21;29.77;;;11.67;;
29466;SDS011;60968;37.490;-122.288;2023-03-11T06:15:22;29.97;;;11.27;;
29466;SDS011;60968;37.490;-122.288;2023-03-11T06:18:26;33.17;;;11.53;;
29466;SDS011;60968;37.490;-122.288;2023-03-11T06:21:27;30.70;;;11.70;;
29466;SDS011;60968;37.490;-122.288;2023-03-11T06:24:28;35.03;;;11.57;;
29466;SDS011;60968;37.490;-122.288;2023-03-11T06:27:29;42.93;;;13.40;;
29466;SDS011;60968;37.490;-122.288;2023-03-11T06:30:30;35.00;;;12.40;;
29466;SDS011;60968;37.490;-122.288;2023-03-11T06:33:31;37.93;;;14.37;;
29466;SDS011;60968;37.490;-122.288;2023-03-11T06:36:32;38.20;;;14.27;;
29466;SDS011;60968;37.490;-122.288;2023-03-11T06:39:33;43.87;;;16.73;;
29466;SDS011;60968;37.490;-122.288;2023-03-11T06:42:34;43.00;;;16.03;;
29466;SDS011;60968;37.490;-122.288;2023-03-11T06:45:35;43.27;;;15.17;;
29466;SDS011;60968;37.490;-122.288;2023-03-11T06:48:36;38.63;;;12.87;;
29466;SDS011;60968;37.490;-122.288;2023-03-11T06:51:36;41.73;;;13.80;;
29466;SDS011;60968;37.490;-122.288;2023-03-11T06:54:38;36.30;;;12.57;;
29466;SDS011;60968;37.490;-122.288;2023-03-11T06:57:38;36.93;;;10.30;;
29466;SDS011;60968;37.490;-122.288;2023-03-11T07:00:39;25.53;;;8.73;;
29466;SDS011;60968;37.490;-122.288;2023-03-11T07:03:40;21.57;;;8.00;;
29466;SDS011;60968;37.490;-122.288;2023-03-11T07:06:42;21.07;;;7.20;;
29466;SDS011;60968;37.490;-122.288;2023-03-11T07:09:44;20.87;;;7.87;;
29466;SDS011;60968;37.490;-122.288;2023-03-11T07:12:46;25.17;;;8.87;;
29466;SDS011;60968;37.490;-122.288;2023-03-11T07:15:47;35.13;;;10.67;;
29466;SDS011;60968;37.490;-122.288;2023-03-11T07:18:50;35.50;;;10.97;;
29466;SDS011;60968;37.490;-122.288;2023-03-11T07:21:51;30.17;;;11.27;;
29466;SDS011;60968;37.490;-122.288;2023-03-11T07:24:52;23.60;;;9.33;;
29466;SDS011;60968;37.490;-122.288;2023-03-11T07:27:56;20.70;;;6.43;;
29466;SDS011;60968;37.490;-122.288;2023-03-11T07:30:57;17.50;;;5.20;;
29466;SDS011;60968;37.490;-122.288;2023-03-11T07:33:58;10.00;;;4.77;;
29466;SDS011;60968;37.490;-122.288;2023-03-11T07:37:01;14.27;;;5.03;;
29466;SDS011;60968;37.490;-122.288;2023-03-11T07:40:02;19.93;;;5.60;;
29466;SDS011;60968;37.490;-122.288;2023-03-11T07:43:03;24.50;;;6.67;;
29466;SDS011;60968;37.490;-122.288;2023-03-11T07:46:05;19.53;;;7.17;;
29466;SDS011;60968;37.490;-122.288;2023-03-11T07:49:24;24.37;;;7.57;;
29466;SDS011;60968;37.490;-122.288;2023-03-11T07:52:28;21.00;;;6.30;;
29466;SDS011;60968;37.490;-122.288;2023-03-11T07:55:32;18.60;;;6.53;;
29466;SDS011;60968;37.490;-122.288;2023-03-11T07:58:33;24.47;;;6.27;;
29466;SDS011;60968;37.490;-122.288;2023-03-11T08:01:34;29.27;;;7.93;;
29466;SDS011;60968;37.490;-122.288;2023-03-11T08:04:34;29.07;;;6.77;;
29466;SDS011;60968;37.490;-122.288;2023-03-11T08:07:35;20.77;;;6.57;;
29466;SDS011;60968;37.490;-122.288;2023-03-11T08:10:36;17.37;;;6.30;;
29466;SDS011;60968;37.490;-122.288;2023-03-11T08:13:39;19.00;;;5.80;;
29466;SDS011;60968;37.490;-122.288;2023-03-11T08:16:41;20.53;;;5.37;;
29466;SDS011;60968;37.490;-122.288;2023-03-11T08:19:42;20.60;;;5.67;;
29466;SDS011;60968;37.490;-122.288;2023-03-11T08:22:42;24.63;;;5.97;;
29466;SDS011;60968;37.490;-122.288;2023-03-11T08:25:43;21.83;;;6.60;;
29466;SDS011;60968;37.490;-122.288;2023-03-11T08:28:46;14.07;;;4.33;;
29466;SDS011;60968;37.490;-122.288;2023-03-11T08:31:47;19.93;;;4.80;;
29466;SDS011;60968;37.490;-122.288;2023-03-11T08:34:48;21.37;;;4.90;;
29466;SDS011;60968;37.490;-122.288;2023-03-11T08:37:49;18.40;;;4.23;;
29466;SDS011;60968;37.490;-122.288;2023-03-11T08:40:50;23.10;;;4.40;;
29466;SDS011;60968;37.490;-122.288;2023-03-11T08:43:50;17.60;;;4.83;;
29466;SDS011;60968;37.490;-122.288;2023-03-11T08:46:51;15.73;;;4.37;;
29466;SDS011;60968;37.490;-122.288;2023-03-11T08:49:52;13.10;;;3.83;;
29466;SDS011;60968;37.490;-122.288;2023-03-11T08:52:56;13.37;;;3.90;;
29466;SDS011;60968;37.490;-122.288;2023-03-11T08:55:57;12.23;;;3.00;;
29466;SDS011;60968;37.490;-122.288;2023-03-11T08:58:58;15.40;;;3.10;;
29466;SDS011;60968;37.490;-122.288;2023-03-11T09:01:59;16.37;;;2.60;;
29466;SDS011;60968;37.490;-122.288;2023-03-11T09:04:59;10.07;;;2.50;;
29466;SDS011;60968;37.490;-122.288;2023-03-11T09:08:01;13.57;;;2.67;;
29466;SDS011;60968;37.490;-122.288;2023-03-11T09:11:02;16.37;;;2.50;;
29466;SDS011;60968;37.490;-122.288;2023-03-11T09:14:03;10.03;;;1.70;;
29466;SDS011;60968;37.490;-122.288;2023-03-11T09:17:05;9.53;;;2.63;;
29466;SDS011;60968;37.490;-122.288;2023-03-11T09:20:06;11.97;;;2.80;;
29466;SDS011;60968;37.490;-122.288;2023-03-11T09:23:08;9.87;;;2.07;;
29466;SDS011;60968;37.490;-122.288;2023-03-11T09:26:11;8.70;;;2.40;;
29466;SDS011;60968;37.490;-122.288;2023-03-11T09:29:12;14.87;;;2.50;;
29466;SDS011;60968;37.490;-122.288;2023-03-11T09:32:14;13.47;;;2.80;;
29466;SDS011;60968;37.490;-122.288;2023-03-11T09:35:15;16.50;;;2.37;;
29466;SDS011;60968;37.490;-122.288;2023-03-11T09:38:16;15.93;;;2.70;;
29466;SDS011;60968;37.490;-122.288;2023-03-11T09:44:30;12.40;;;3.33;;
29466;SDS011;60968;37.490;-122.288;2023-03-11T09:53:49;13.57;;;3.03;;
29466;SDS011;60968;37.490;-122.288;2023-03-11T09:57:04;15.07;;;2.80;;
29466;SDS011;60968;37.490;-122.288;2023-03-11T10:00:11;22.97;;;3.67;;
29466;SDS011;60968;37.490;-122.288;2023-03-11T10:06:32;20.80;;;3.30;;
29466;SDS011;60968;37.490;-122.288;2023-03-11T10:16:18;18.37;;;5.63;;
29466;SDS011;60968;37.490;-122.288;2023-03-11T10:19:52;14.63;;;4.13;;
29466;SDS011;60968;37.490;-122.288;2023-03-11T10:26:16;15.33;;;4.23;;
29466;SDS011;60968;37.490;-122.288;2023-03-11T10:29:28;10.33;;;3.43;;
29466;SDS011;60968;37.490;-122.288;2023-03-11T10:32:45;16.57;;;3.70;;
29466;SDS011;60968;37.490;-122.288;2023-03-11T10:35:52;17.10;;;4.27;;
29466;SDS011;60968;37.490;-122.288;2023-03-11T10:38:56;13.93;;;4.00;;
29466;SDS011;60968;37.490;-122.288;2023-03-11T10:41:58;19.47;;;5.03;;
29466;SDS011;60968;37.490;-122.288;2023-03-11T10:45:01;19.10;;;4.47;;
29466;SDS011;60968;37.490;-122.288;2023-03-11T10:48:09;16.03;;;4.40;;
29466;SDS011;60968;37.490;-122.288;2023-03-11T10:51:40;24.60;;;4.70;;
29466;SDS011;60968;37.490;-122.288;2023-03-11T10:54:42;14.17;;;4.33;;
29466;SDS011;60968;37.490;-122.288;2023-03-11T10:57:47;18.00;;;4.57;;
29466;SDS011;60968;37.490;-122.288;2023-03-11T11:01:13;18.13;;;3.80;;
29466;SDS011;60968;37.490;-122.288;2023-03-11T11:04:22;14.10;;;3.53;;
29466;SDS011;60968;37.490;-122.288;2023-03-11T11:07:39;12.10;;;3.03;;
29466;SDS011;60968;37.490;-122.288;2023-03-11T11:10:50;11.63;;;2.77;;
29466;SDS011;60968;37.490;-122.288;2023-03-11T11:13:56;13.17;;;2.97;;
29466;SDS011;60968;37.490;-122.288;2023-03-11T11:16:58;11.43;;;2.87;;
29466;SDS011;60968;37.490;-122.288;2023-03-11T11:20:00;17.77;;;4.00;;
29466;SDS011;60968;37.490;-122.288;2023-03-11T11:23:02;9.90;;;2.83;;
29466;SDS011;60968;37.490;-122.288;2023-03-11T11:26:05;15.33;;;2.60;;
29466;SDS011;60968;37.490;-122.288;2023-03-11T11:29:15;16.87;;;2.80;;
29466;SDS011;60968;37.490;-122.288;2023-03-11T11:35:25;10.27;;;2.07;;
29466;SDS011;60968;37.490;-122.288;2023-03-11T11:38:27;11.80;;;2.47;;
29466;SDS011;60968;37.490;-122.288;2023-03-11T11:41:30;8.50;;;2.10;;
29466;SDS011;60968;37.490;-122.288;2023-03-11T11:44:35;9.93;;;2.23;;
29466;SDS011;60968;37.490;-122.288;2023-03-11T11:47:38;14.50;;;3.23;;
29466;SDS011;60968;37.490;-122.288;2023-03-11T11:50:44;9.83;;;2.50;;
29466;SDS011;60968;37.490;-122.288;2023-03-11T11:53:54;12.73;;;2.70;;
29466;SDS011;60968;37.490;-122.288;2023-03-11T11:57:18;21.00;;;3.17;;
29466;SDS011;60968;37.490;-122.288;2023-03-11T12:00:23;12.30;;;3.10;;
29466;SDS011;60968;37.490;-122.288;2023-03-11T12:10:33;14.10;;;2.90;;
29466;SDS011;60968;37.490;-122.288;2023-03-11T12:14:05;18.17;;;3.13;;
29466;SDS011;60968;37.490;-122.288;2023-03-11T12:17:16;20.43;;;3.03;;
29466;SDS011;60968;37.490;-122.288;2023-03-11T12:30:59;16.10;;;3.07;;
29466;SDS011;60968;37.490;-122.288;2023-03-11T12:34:05;9.60;;;2.33;;
29466;SDS011;60968;37.490;-122.288;2023-03-11T12:37:13;8.43;;;2.30;;
29466;SDS011;60968;37.490;-122.288;2023-03-11T12:43:57;10.37;;;2.03;;
29466;SDS011;60968;37.490;-122.288;2023-03-11T12:47:01;10.63;;;2.20;;
29466;SDS011;60968;37.490;-122.288;2023-03-11T12:53:45;10.20;;;2.00;;
29466;SDS011;60968;37.490;-122.288;2023-03-11T12:56:54;11.83;;;2.43;;
29466;SDS011;60968;37.490;-122.288;2023-03-11T13:03:46;10.97;;;2.67;;
29466;SDS011;60968;37.490;-122.288;2023-03-11T13:10:19;20.87;;;3.90;;
29466;SDS011;60968;37.490;-122.288;2023-03-11T13:13:30;18.87;;;4.00;;
29466;SDS011;60968;37.490;-122.288;2023-03-11T13:16:39;17.70;;;4.43;;
29466;SDS011;60968;37.490;-122.288;2023-03-11T13:19:49;20.07;;;3.90;;
29466;SDS011;60968;37.490;-122.288;2023-03-11T13:26:16;14.13;;;3.23;;
29466;SDS011;60968;37.490;-122.288;2023-03-11T13:29:26;17.50;;;3.60;;
29466;SDS011;60968;37.490;-122.288;2023-03-11T13:42:46;11.40;;;2.57;;
29466;SDS011;60968;37.490;-122.288;2023-03-11T13:46:00;14.03;;;3.27;;
29466;SDS011;60968;37.490;-122.288;2023-03-11T13:49:23;12.87;;;3.10;;
29466;SDS011;60968;37.490;-122.288;2023-03-11T13:52:41;11.00;;;2.83;;
29466;SDS011;60968;37.490;-122.288;2023-03-11T13:55:48;14.87;;;2.87;;
29466;SDS011;60968;37.490;-122.288;2023-03-11T13:58:49;12.57;;;2.63;;
29466;SDS011;60968;37.490;-122.288;2023-03-11T14:05:14;12.83;;;3.03;;
29466;SDS011;60968;37.490;-122.288;2023-03-11T14:08:30;16.37;;;2.87;;
29466;SDS011;60968;37.490;-122.288;2023-03-11T14:11:33;11.93;;;2.27;;
29466;SDS011;60968;37.490;-122.288;2023-03-11T14:18:32;14.87;;;3.00;;
29466;SDS011;60968;37.490;-122.288;2023-03-11T14:21:35;10.70;;;2.27;;
29466;SDS011;60968;37.490;-122.288;2023-03-11T14:24:36;11.80;;;2.83;;
29466;SDS011;60968;37.490;-122.288;2023-03-11T14:27:37;12.97;;;3.17;;
29466;SDS011;60968;37.490;-122.288;2023-03-11T14:30:40;17.77;;;3.63;;
29466;SDS011;60968;37.490;-122.288;2023-03-11T14:33:59;8.67;;;2.50;;
29466;SDS011;60968;37.490;-122.288;2023-03-11T14:37:30;13.13;;;2.60;;
29466;SDS011;60968;37.490;-122.288;2023-03-11T14:40:31;12.07;;;3.10;;
29466;SDS011;60968;37.490;-122.288;2023-03-11T14:43:36;11.13;;;2.80;;
29466;SDS011;60968;37.490;-122.288;2023-03-11T14:46:41;10.43;;;2.63;;
29466;SDS011;60968;37.490;-122.288;2023-03-11T14:49:43;15.33;;;2.50;;
29466;SDS011;60968;37.490;-122.288;2023-03-11T14:52:46;13.67;;;2.67;;
29466;SDS011;60968;37.490;-122.288;2023-03-11T14:56:00;15.67;;;2.90;;
29466;SDS011;60968;37.490;-122.288;2023-03-11T14:59:16;13.17;;;3.10;;
29466;SDS011;60968;37.490;-122.288;2023-03-11T15:02:30;15.07;;;2.60;;
29466;SDS011;60968;37.490;-122.288;2023-03-11T15:05:50;8.67;;;2.50;;
29466;SDS011;60968;37.490;-122.288;2023-03-11T15:08:55;13.63;;;2.30;;
29466;SDS011;60968;37.490;-122.288;2023-03-11T15:12:04;10.40;;;2.47;;
29466;SDS011;60968;37.490;-122.288;2023-03-11T15:15:25;12.73;;;2.30;;
29466;SDS011;60968;37.490;-122.288;2023-03-11T15:18:29;8.97;;;2.00;;
29466;SDS011;60968;37.490;-122.288;2023-03-11T15:21:31;9.70;;;2.40;;
29466;SDS011;60968;37.490;-122.288;2023-03-11T15:24:32;12.60;;;2.87;;
29466;SDS011;60968;37.490;-122.288;2023-03-11T15:27:36;9.67;;;2.50;;
29466;SDS011;60968;37.490;-122.288;2023-03-11T15:30:38;14.97;;;2.53;;
29466;SDS011;60968;37.490;-122.288;2023-03-11T15:33:39;12.67;;;2.53;;
29466;SDS011;60968;37.490;-122.288;2023-03-11T15:36:43;13.53;;;2.73;;
29466;SDS011;60968;37.490;-122.288;2023-03-11T15:40:05;10.97;;;2.60;;
29466;SDS011;60968;37.490;-122.288;2023-03-11T15:43:18;12.10;;;2.47;;
29466;SDS011;60968;37.490;-122.288;2023-03-11T15:46:22;11.73;;;2.70;;
29466;SDS011;60968;37.490;-122.288;2023-03-11T15:49:23;12.27;;;2.47;;
29466;SDS011;60968;37.490;-122.288;2023-03-11T15:52:25;7.00;;;2.03;;
29466;SDS011;60968;37.490;-122.288;2023-03-11T15:55:27;15.10;;;2.50;;
29466;SDS011;60968;37.490;-122.288;2023-03-11T15:58:28;17.67;;;2.67;;
29466;SDS011;60968;37.490;-122.288;2023-03-11T16:01:30;7.20;;;2.00;;
29466;SDS011;60968;37.490;-122.288;2023-03-11T16:04:31;15.93;;;2.60;;
29466;SDS011;60968;37.490;-122.288;2023-03-11T16:07:34;15.63;;;2.87;;
29466;SDS011;60968;37.490;-122.288;2023-03-11T16:10:36;12.40;;;2.47;;
29466;SDS011;60968;37.490;-122.288;2023-03-11T16:13:38;13.83;;;3.30;;
29466;SDS011;60968;37.490;-122.288;2023-03-11T16:16:39;12.23;;;3.50;;
29466;SDS011;60968;37.490;-122.288;2023-03-11T16:19:40;13.10;;;3.30;;
29466;SDS011;60968;37.490;-122.288;2023-03-11T16:22:41;16.03;;;3.37;;
29466;SDS011;60968;37.490;-122.288;2023-03-11T16:25:42;17.13;;;3.13;;
29466;SDS011;60968;37.490;-122.288;2023-03-11T16:28:44;12.27;;;2.83;;
29466;SDS011;60968;37.490;-122.288;2023-03-11T16:31:45;12.00;;;3.20;;
29466;SDS011;60968;37.490;-122.288;2023-03-11T16:34:46;12.70;;;3.40;;
29466;SDS011;60968;37.490;-122.288;2023-03-11T16:37:47;12.10;;;2.97;;
29466;SDS011;60968;37.490;-122.288;2023-03-11T16:40:58;11.87;;;2.97;;
29466;SDS011;60968;37.490;-122.288;2023-03-11T16:44:00;9.70;;;3.00;;
29466;SDS011;60968;37.490;-122.288;2023-03-11T16:47:01;15.63;;;3.10;;
29466;SDS011;60968;37.490;-122.288;2023-03-11T16:50:02;16.63;;;2.67;;
29466;SDS011;60968;37.490;-122.288;2023-03-11T16:53:04;12.33;;;2.60;;
29466;SDS011;60968;37.490;-122.288;2023-03-11T16:56:05;11.00;;;2.93;;
29466;SDS011;60968;37.490;-122.288;2023-03-11T16:59:06;14.37;;;3.10;;
29466;SDS011;60968;37.490;-122.288;2023-03-11T17:02:09;14.50;;;3.53;;
29466;SDS011;60968;37.490;-122.288;2023-03-11T17:05:10;13.07;;;3.03;;
29466;SDS011;60968;37.490;-122.288;2023-03-11T17:08:11;14.27;;;3.03;;
29466;SDS011;60968;37.490;-122.288;2023-03-11T17:11:13;12.60;;;3.07;;
29466;SDS011;60968;37.490;-122.288;2023-03-11T17:14:17;13.53;;;3.03;;
29466;SDS011;60968;37.490;-122.288;2023-03-11T17:17:19;11.37;;;3.03;;
29466;SDS011;60968;37.490;-122.288;2023-03-11T17:20:20;7.90;;;3.10;;
29466;SDS011;60968;37.490;-122.288;2023-03-11T17:23:21;9.47;;;2.83;;
29466;SDS011;60968;37.490;-122.288;2023-03-11T17:26:22;16.60;;;3.53;;
29466;SDS011;60968;37.490;-122.288;2023-03-11T17:29:23;10.57;;;3.40;;
29466;SDS011;60968;37.490;-122.288;2023-03-11T17:32:23;17.20;;;3.77;;
29466;SDS011;60968;37.490;-122.288;2023-03-11T17:35:24;9.43;;;2.80;;
29466;SDS011;60968;37.490;-122.288;2023-03-11T17:38:26;13.37;;;3.23;;
29466;SDS011;60968;37.490;-122.288;2023-03-11T17:41:27;10.87;;;2.80;;
29466;SDS011;60968;37.490;-122.288;2023-03-11T17:44:28;11.67;;;3.10;;
29466;SDS011;60968;37.490;-122.288;2023-03-11T17:47:31;13.10;;;2.87;;
29466;SDS011;60968;37.490;-122.288;2023-03-11T17:50:35;12.93;;;2.50;;
29466;SDS011;60968;37.490;-122.288;2023-03-11T17:53:40;12.00;;;2.80;;
29466;SDS011;60968;37.490;-122.288;2023-03-11T17:56:42;13.63;;;2.90;;
29466;SDS011;60968;37.490;-122.288;2023-03-11T17:59:42;11.40;;;3.23;;
29466;SDS011;60968;37.490;-122.288;2023-03-11T18:02:46;13.27;;;3.03;;
29466;SDS011;60968;37.490;-122.288;2023-03-11T18:05:56;20.37;;;4.17;;
29466;SDS011;60968;37.490;-122.288;2023-03-11T18:08:59;14.80;;;3.73;;
29466;SDS011;60968;37.490;-122.288;2023-03-11T18:12:00;7.93;;;2.67;;
29466;SDS011;60968;37.490;-122.288;2023-03-11T18:15:02;12.30;;;2.90;;
29466;SDS011;60968;37.490;-122.288;2023-03-11T18:18:07;22.47;;;3.50;;
29466;SDS011;60968;37.490;-122.288;2023-03-11T18:21:10;6.73;;;2.73;;
29466;SDS011;60968;37.490;-122.288;2023-03-11T18:24:15;16.17;;;3.13;;
29466;SDS011;60968;37.490;-122.288;2023-03-11T18:27:19;10.57;;;3.13;;
29466;SDS011;60968;37.490;-122.288;2023-03-11T18:30:19;15.63;;;3.50;;
29466;SDS011;60968;37.490;-122.288;2023-03-11T18:33:21;18.03;;;3.33;;
29466;SDS011;60968;37.490;-122.288;2023-03-11T18:36:24;12.80;;;3.50;;
29466;SDS011;60968;37.490;-122.288;2023-03-11T18:39:29;11.87;;;3.93;;
29466;SDS011;60968;37.490;-122.288;2023-03-11T18:42:32;9.73;;;3.87;;
29466;SDS011;60968;37.490;-122.288;2023-03-11T18:45:33;13.23;;;3.53;;
29466;SDS011;60968;37.490;-122.288;2023-03-11T18:48:46;10.53;;;3.23;;
29466;SDS011;60968;37.490;-122.288;2023-03-11T18:51:47;8.73;;;2.77;;